createdAt,value
2022-12-20T00:01:28.505Z,40.58
2022-12-20T00:03:56.694Z,41.24
2022-12-20T00:06:24.388Z,41.62
2022-12-20T00:08:55.882Z,42.14
2022-12-20T00:11:22.838Z,42.72
2022-12-20T00:13:49.420Z,43.27
2022-12-20T00:16:18.502Z,45.23
2022-12-20T00:18:45.371Z,45.87
2022-12-20T00:21:13.768Z,45.95
2022-12-20T00:23:41.621Z,45.21
2022-12-20T00:26:12.274Z,45.60
2022-12-20T00:28:39.882Z,44.38
2022-12-20T00:31:08.047Z,45.10
2022-12-20T00:33:36.072Z,43.60
2022-12-20T00:36:03.369Z,45.27
2022-12-20T00:38:30.076Z,45.46
2022-12-20T00:41:10.730Z,43.78
2022-12-20T00:43:38.522Z,44.76
2022-12-20T00:46:06.021Z,45.40
2022-12-20T00:48:33.076Z,45.54
2022-12-20T00:51:01.549Z,45.99
2022-12-20T00:53:28.721Z,46.55
2022-12-20T00:55:55.365Z,46.62
2022-12-20T00:58:22.218Z,45.96
2022-12-20T01:00:55.565Z,45.56
2022-12-20T01:03:23.471Z,46.70
2022-12-20T01:06:01.484Z,47.01
2022-12-20T01:08:30.850Z,46.94
2022-12-20T01:11:06.543Z,47.20
2022-12-20T01:13:35.138Z,49.59
2022-12-20T01:16:07.533Z,49.38
2022-12-20T01:18:34.287Z,49.66
2022-12-20T01:21:05.328Z,49.82
2022-12-20T01:23:32.335Z,49.08
2022-12-20T01:26:00.730Z,48.03
2022-12-20T01:28:28.620Z,48.14
2022-12-20T01:30:55.600Z,47.44
2022-12-20T01:33:22.432Z,46.56
2022-12-20T01:36:00.180Z,47.24
2022-12-20T01:38:27.316Z,46.36
2022-12-20T01:40:54.914Z,45.79
2022-12-20T01:43:22.381Z,46.59
2022-12-20T01:45:49.332Z,47.26
2022-12-20T01:48:19.947Z,46.42
2022-12-20T01:50:46.810Z,46.67
2022-12-20T01:53:13.633Z,45.81
2022-12-20T01:55:40.409Z,45.87
2022-12-20T01:58:09.420Z,44.92
2022-12-20T02:00:37.327Z,45.82
2022-12-20T02:03:08.812Z,46.53
2022-12-20T02:05:37.519Z,45.54
2022-12-20T02:08:04.972Z,46.88
2022-12-20T02:10:54.605Z,47.78
2022-12-20T02:13:43.695Z,48.43
2022-12-20T02:16:15.337Z,48.29
2022-12-20T02:18:47.247Z,49.69
2022-12-20T02:21:28.770Z,48.70
2022-12-20T02:24:32.574Z,48.75
2022-12-20T02:27:17.963Z,48.88
2022-12-20T02:30:26.955Z,49.19
2022-12-20T02:33:05.444Z,50.98
2022-12-20T02:35:36.126Z,52.72
2022-12-20T02:38:28.335Z,52.74
2022-12-20T02:41:02.413Z,52.39
2022-12-20T02:43:48.925Z,52.30
2022-12-20T02:46:16.919Z,50.30
2022-12-20T02:48:45.605Z,50.77
2022-12-20T02:51:12.774Z,50.67
2022-12-20T02:53:42.680Z,50.15
2022-12-20T02:56:22.225Z,50.76
2022-12-20T02:58:55.690Z,50.92
2022-12-20T03:01:36.451Z,49.51
2022-12-20T03:04:04.041Z,47.84
2022-12-20T03:06:30.835Z,48.38
2022-12-20T03:08:57.878Z,48.33
2022-12-20T03:11:27.465Z,47.37
2022-12-20T03:13:54.040Z,47.21
2022-12-20T03:16:20.801Z,47.38
2022-12-20T03:18:48.117Z,46.29
2022-12-20T03:21:14.898Z,45.20
2022-12-20T03:23:43.050Z,45.24
2022-12-20T03:26:11.215Z,45.13
2022-12-20T03:28:42.871Z,44.73
2022-12-20T03:31:12.749Z,44.54
2022-12-20T03:33:45.819Z,45.09
2022-12-20T03:36:12.571Z,43.90
2022-12-20T03:38:39.359Z,43.97
2022-12-20T03:41:07.666Z,43.70
2022-12-20T03:43:34.628Z,44.45
2022-12-20T03:46:01.318Z,44.57
2022-12-20T03:48:32.483Z,44.94
2022-12-20T03:50:59.309Z,44.46
2022-12-20T03:53:25.956Z,43.30
2022-12-20T03:55:52.803Z,42.13
2022-12-20T03:58:19.434Z,41.80
2022-12-20T04:00:46.123Z,43.00
2022-12-20T04:03:32.733Z,42.22
2022-12-20T04:05:59.383Z,42.70
2022-12-20T04:08:27.059Z,44.05
2022-12-20T04:11:12.244Z,43.83
2022-12-20T04:13:42.420Z,44.92
2022-12-20T04:16:10.343Z,44.04
2022-12-20T04:18:37.359Z,42.63
2022-12-20T04:21:07.127Z,43.13
2022-12-20T04:23:38.369Z,41.88
2022-12-20T04:26:06.510Z,42.46
2022-12-20T04:28:34.147Z,43.29
2022-12-20T04:31:01.279Z,43.88
2022-12-20T04:33:30.325Z,44.14
2022-12-20T04:35:57.268Z,44.76
2022-12-20T04:38:25.284Z,45.68
2022-12-20T04:40:54.850Z,46.58
2022-12-20T04:43:24.552Z,45.86
2022-12-20T04:45:56.284Z,45.98
2022-12-20T04:51:13.816Z,49.26
2022-12-20T04:53:49.944Z,50.90
2022-12-20T04:56:35.063Z,53.18
2022-12-20T04:59:08.630Z,55.60
2022-12-20T05:01:36.185Z,56.87
2022-12-20T05:04:03.530Z,58.34
2022-12-20T05:06:34.181Z,57.93
2022-12-20T05:09:01.075Z,57.28
2022-12-20T05:11:27.990Z,56.32
2022-12-20T05:13:54.770Z,56.38
2022-12-20T05:16:21.810Z,56.00
2022-12-20T05:18:49.809Z,55.67
2022-12-20T05:21:36.908Z,55.96
2022-12-20T05:24:23.448Z,56.58
2022-12-20T05:27:17.438Z,56.54
2022-12-20T05:29:44.121Z,56.35
2022-12-20T05:32:10.829Z,56.62
2022-12-20T05:34:40.721Z,57.39
2022-12-20T05:37:07.357Z,57.89
2022-12-20T05:39:36.613Z,57.59
2022-12-20T05:42:09.154Z,58.23
2022-12-20T05:44:36.807Z,58.05
2022-12-20T05:47:03.545Z,58.09
2022-12-20T05:49:33.463Z,57.99
2022-12-20T05:52:02.689Z,58.03
2022-12-20T05:54:29.760Z,57.16
2022-12-20T05:57:04.803Z,57.05
2022-12-20T05:59:37.308Z,55.72
2022-12-20T06:02:06.363Z,55.66
2022-12-20T06:04:34.182Z,55.10
2022-12-20T06:07:05.576Z,55.31
2022-12-20T06:09:32.872Z,55.27
2022-12-20T06:12:06.947Z,54.05
2022-12-20T06:14:34.426Z,53.75
2022-12-20T06:17:02.248Z,53.98
2022-12-20T06:19:30.270Z,53.93
2022-12-20T06:22:00.766Z,53.45
2022-12-20T06:24:36.515Z,53.51
2022-12-20T06:27:03.616Z,53.88
2022-12-20T06:29:31.127Z,53.79
2022-12-20T06:32:06.995Z,53.96
2022-12-20T06:34:33.823Z,54.62
2022-12-20T06:37:01.156Z,53.73
2022-12-20T06:39:31.050Z,53.54
2022-12-20T06:42:05.074Z,54.21
2022-12-20T06:44:33.025Z,53.98
2022-12-20T06:46:59.638Z,53.86
2022-12-20T06:49:26.611Z,54.18
2022-12-20T06:51:53.453Z,53.77
2022-12-20T06:54:25.670Z,53.98
2022-12-20T06:56:52.352Z,54.02
2022-12-20T06:59:19.583Z,55.11
2022-12-20T07:01:46.503Z,55.07
2022-12-20T07:04:13.307Z,53.91
2022-12-20T07:06:39.847Z,54.91
2022-12-20T07:09:06.485Z,55.65
2022-12-20T07:11:33.159Z,56.24
2022-12-20T07:13:59.889Z,57.00
2022-12-20T07:16:26.793Z,57.45
2022-12-20T07:18:53.643Z,57.89
2022-12-20T07:21:20.784Z,58.36
2022-12-20T07:23:47.822Z,57.87
2022-12-20T07:26:15.333Z,58.34
2022-12-20T07:28:42.765Z,57.12
2022-12-20T07:31:09.376Z,57.00
2022-12-20T07:33:37.328Z,58.07
2022-12-20T07:36:08.883Z,57.97
2022-12-20T07:38:35.750Z,57.38
2022-12-20T07:41:30.078Z,57.85
2022-12-20T07:43:58.890Z,57.89
2022-12-20T07:46:25.600Z,57.83
2022-12-20T07:48:52.507Z,58.18
2022-12-20T07:51:25.821Z,58.36
2022-12-20T07:54:05.267Z,57.88
2022-12-20T07:56:40.522Z,58.17
2022-12-20T07:59:08.387Z,58.66
2022-12-20T08:01:35.531Z,58.97
2022-12-20T08:04:13.548Z,58.14
2022-12-20T08:06:41.156Z,57.31
2022-12-20T08:09:09.266Z,56.79
2022-12-20T08:11:37.174Z,56.40
2022-12-20T08:14:05.176Z,56.31
2022-12-20T08:16:31.865Z,55.94
2022-12-20T08:18:58.482Z,55.98
2022-12-20T08:21:25.127Z,55.65
2022-12-20T08:23:51.981Z,54.96
2022-12-20T08:26:18.692Z,53.36
2022-12-20T08:28:45.292Z,52.83
2022-12-20T08:31:12.871Z,52.90
2022-12-20T08:33:40.328Z,52.24
2022-12-20T08:36:09.812Z,51.22
2022-12-20T08:38:37.155Z,50.50
2022-12-20T08:41:05.737Z,48.98
2022-12-20T08:43:33.744Z,48.76
2022-12-20T08:46:00.996Z,47.66
2022-12-20T08:48:27.977Z,47.08
2022-12-20T08:51:01.113Z,46.93
2022-12-20T08:53:29.462Z,45.59
2022-12-20T08:56:17.759Z,44.41
2022-12-20T08:58:45.109Z,43.66
2022-12-20T09:01:13.961Z,42.14
2022-12-20T09:03:41.145Z,40.21
2022-12-20T09:06:13.615Z,38.10
2022-12-20T09:08:41.075Z,37.30
2022-12-20T09:11:10.068Z,35.80
2022-12-20T09:13:43.460Z,35.65
2022-12-20T09:16:12.884Z,34.58
2022-12-20T09:18:39.746Z,33.51
2022-12-20T09:21:07.672Z,32.18
2022-12-20T09:23:35.690Z,31.13
2022-12-20T09:26:07.956Z,30.00
2022-12-20T09:28:34.847Z,30.05
2022-12-20T09:31:06.419Z,29.60
2022-12-20T09:33:34.290Z,29.68
2022-12-20T09:36:01.644Z,29.69
2022-12-20T09:38:29.610Z,28.81
2022-12-20T09:41:00.560Z,28.36
2022-12-20T09:43:27.812Z,27.93
2022-12-20T09:45:59.791Z,26.79
2022-12-20T09:48:30.700Z,26.66
2022-12-20T09:51:09.528Z,26.58
2022-12-20T09:53:56.895Z,25.67
2022-12-20T09:56:45.291Z,25.13
2022-12-20T09:59:14.980Z,24.07
2022-12-20T10:01:47.381Z,22.53
2022-12-20T10:04:24.848Z,20.90
2022-12-20T10:07:14.600Z,19.52
2022-12-20T10:09:59.493Z,16.72
2022-12-20T10:12:36.604Z,12.88
2022-12-20T10:15:34.076Z,14.53
2022-12-20T10:18:06.692Z,15.42
2022-12-20T10:20:54.912Z,16.23
2022-12-20T10:23:35.765Z,16.00
2022-12-20T10:26:05.111Z,15.94
2022-12-20T10:28:34.798Z,15.72
2022-12-20T10:31:16.238Z,15.26
2022-12-20T10:33:43.709Z,15.50
2022-12-20T10:36:27.326Z,16.24
2022-12-20T10:38:58.867Z,16.73
2022-12-20T10:41:28.136Z,16.65
2022-12-20T10:43:56.401Z,15.38
2022-12-20T10:46:24.220Z,15.44
2022-12-20T10:48:51.670Z,15.56
2022-12-20T10:51:21.208Z,15.44
2022-12-20T10:54:03.206Z,15.10
2022-12-20T10:56:32.087Z,15.83
2022-12-20T10:59:00.045Z,15.04
2022-12-20T11:01:32.670Z,16.27
2022-12-20T11:04:05.670Z,16.89
2022-12-20T11:06:38.700Z,17.47
2022-12-20T11:09:33.417Z,18.10
2022-12-20T11:12:14.406Z,18.79
2022-12-20T11:14:45.459Z,19.00
2022-12-20T11:17:22.323Z,19.24
2022-12-20T11:19:54.664Z,20.34
2022-12-20T11:22:49.243Z,21.09
2022-12-20T11:25:43.792Z,21.36
2022-12-20T11:28:27.496Z,22.12
2022-12-20T11:31:07.244Z,21.69
2022-12-20T11:33:46.181Z,21.95
2022-12-20T11:36:23.028Z,21.93
2022-12-20T11:38:55.849Z,22.77
2022-12-20T11:41:45.576Z,22.39
2022-12-20T11:44:29.044Z,22.26
2022-12-20T11:47:10.872Z,22.42
2022-12-20T11:49:52.868Z,22.40
2022-12-20T11:52:25.657Z,22.48
2022-12-20T11:55:13.914Z,23.33
2022-12-20T11:58:17.026Z,22.89
2022-12-20T12:00:36.000Z,23.90
2022-12-20T12:03:14.950Z,23.79
2022-12-20T12:05:47.692Z,23.22
2022-12-20T12:08:29.398Z,23.82
2022-12-20T12:11:25.447Z,23.64
2022-12-20T12:13:55.723Z,24.57
2022-12-20T12:16:35.167Z,24.34
2022-12-20T12:19:02.243Z,24.63
2022-12-20T12:21:35.119Z,23.80
2022-12-20T12:24:12.211Z,24.85
2022-12-20T12:26:40.957Z,24.13
2022-12-20T12:29:13.445Z,24.09
2022-12-20T12:31:46.115Z,24.00
2022-12-20T12:34:50.403Z,23.64
2022-12-20T12:37:19.633Z,23.69
2022-12-20T12:40:16.224Z,23.48
2022-12-20T12:43:08.186Z,23.23
2022-12-20T12:45:38.603Z,23.40
2022-12-20T12:48:17.712Z,23.34
2022-12-20T12:50:50.329Z,23.81
2022-12-20T12:53:29.897Z,23.71
2022-12-20T12:56:12.934Z,23.64
2022-12-20T12:58:48.729Z,23.91
2022-12-20T13:01:54.426Z,23.50
2022-12-20T13:04:23.970Z,23.88
2022-12-20T13:06:50.565Z,23.70
2022-12-20T13:09:26.206Z,23.45
2022-12-20T13:12:00.371Z,23.56
2022-12-20T13:14:28.837Z,23.28
2022-12-20T13:17:24.041Z,23.59
2022-12-20T13:19:54.110Z,23.44
2022-12-20T13:22:23.201Z,22.98
2022-12-20T13:24:56.245Z,23.00
2022-12-20T13:27:40.506Z,22.88
2022-12-20T13:30:07.072Z,23.58
2022-12-20T13:32:48.718Z,23.30
2022-12-20T13:35:24.915Z,23.07
2022-12-20T13:37:54.875Z,23.04
2022-12-20T13:40:55.650Z,23.44
2022-12-20T13:43:23.270Z,23.18
2022-12-20T13:45:52.415Z,23.69
2022-12-20T13:48:24.119Z,24.18
2022-12-20T13:50:55.240Z,24.55
2022-12-20T13:53:24.799Z,24.81
2022-12-20T13:55:51.386Z,24.92
2022-12-20T13:58:20.451Z,25.55
2022-12-20T14:00:48.732Z,26.20
2022-12-20T14:03:26.918Z,26.30
2022-12-20T14:05:59.302Z,26.59
2022-12-20T14:08:29.239Z,26.54
2022-12-20T14:10:55.879Z,26.58
2022-12-20T14:13:24.665Z,27.37
2022-12-20T14:15:52.147Z,27.54
2022-12-20T14:18:21.853Z,27.84
2022-12-20T14:20:59.666Z,27.85
2022-12-20T14:23:33.923Z,27.72
2022-12-20T14:26:02.125Z,28.07
2022-12-20T14:28:39.343Z,28.78
2022-12-20T14:31:07.791Z,29.15
2022-12-20T14:33:35.852Z,29.73
2022-12-20T14:36:09.503Z,29.85
2022-12-20T14:38:36.329Z,30.43
2022-12-20T14:41:02.986Z,30.64
2022-12-20T14:43:34.082Z,30.27
2022-12-20T14:46:20.941Z,30.02
2022-12-20T14:48:47.601Z,29.66
2022-12-20T14:51:20.869Z,29.37
2022-12-20T14:53:49.031Z,28.98
2022-12-20T14:56:18.706Z,27.85
2022-12-20T14:58:45.531Z,27.70
2022-12-20T15:01:15.136Z,27.32
2022-12-20T15:03:52.850Z,26.60
2022-12-20T15:06:35.610Z,25.91
2022-12-20T15:09:02.758Z,26.25
2022-12-20T15:11:29.766Z,26.55
2022-12-20T15:13:57.016Z,26.56
2022-12-20T15:16:26.115Z,27.01
2022-12-20T15:18:55.600Z,27.62
2022-12-20T15:21:42.733Z,27.88
2022-12-20T15:24:15.168Z,28.21
2022-12-20T15:26:41.883Z,27.48
2022-12-20T15:29:28.059Z,27.07
2022-12-20T15:32:06.532Z,26.80
2022-12-20T15:34:38.324Z,26.29
2022-12-20T15:37:06.307Z,27.33
2022-12-20T15:39:33.661Z,26.94
2022-12-20T15:42:01.854Z,28.15
2022-12-20T15:44:30.609Z,29.21
2022-12-20T15:46:57.433Z,31.70
2022-12-20T15:49:33.275Z,33.43
2022-12-20T15:51:59.909Z,35.74
2022-12-20T15:54:35.754Z,37.35
2022-12-20T15:57:07.444Z,39.17
2022-12-20T16:02:22.929Z,41.92
2022-12-20T16:04:50.531Z,44.24
2022-12-20T16:07:17.449Z,48.97
2022-12-20T16:09:44.165Z,52.38
2022-12-20T16:12:15.996Z,55.51
2022-12-20T16:14:42.738Z,56.49
2022-12-20T16:17:16.024Z,57.75
2022-12-20T16:19:43.454Z,59.55
2022-12-20T16:22:22.165Z,61.44
2022-12-20T16:24:49.244Z,61.91
2022-12-20T16:27:15.903Z,64.81
2022-12-20T16:29:42.550Z,64.43
2022-12-20T16:32:19.754Z,66.35
2022-12-20T16:34:46.953Z,68.74
2022-12-20T16:37:13.798Z,69.19
2022-12-20T16:39:41.109Z,69.42
2022-12-20T16:42:15.437Z,70.29
2022-12-20T16:44:45.328Z,71.25
2022-12-20T16:47:13.470Z,71.99
2022-12-20T16:49:47.322Z,73.38
2022-12-20T16:52:19.067Z,74.16
2022-12-20T16:54:45.734Z,74.70
2022-12-20T16:57:12.364Z,75.64
2022-12-20T16:59:39.018Z,76.15
2022-12-20T17:02:19.930Z,77.25
2022-12-20T17:04:46.905Z,76.45
2022-12-20T17:07:13.556Z,77.43
2022-12-20T17:09:40.187Z,77.64
2022-12-20T17:12:15.411Z,78.99
2022-12-20T17:14:43.046Z,78.90
2022-12-20T17:17:09.801Z,78.42
2022-12-20T17:19:37.520Z,78.95
2022-12-20T17:24:48.355Z,79.80
2022-12-20T17:27:15.202Z,79.55
2022-12-20T17:29:42.048Z,80.17
2022-12-20T17:32:20.938Z,80.52
2022-12-20T17:34:47.638Z,79.66
2022-12-20T17:37:14.348Z,80.62
2022-12-20T17:39:40.982Z,80.09
2022-12-20T17:42:12.124Z,80.64
2022-12-20T17:44:38.782Z,80.92
2022-12-20T17:47:06.402Z,81.17
2022-12-20T17:49:33.320Z,81.28
2022-12-20T17:52:00.178Z,81.09
2022-12-20T17:54:32.100Z,81.96
2022-12-20T17:57:03.642Z,82.39
2022-12-20T17:59:30.676Z,82.96
2022-12-20T18:01:57.554Z,83.08
2022-12-20T18:04:24.485Z,83.02
2022-12-20T18:06:52.335Z,83.26
2022-12-20T18:09:22.258Z,83.59
2022-12-20T18:11:49.480Z,84.19
2022-12-20T18:14:16.241Z,84.06
2022-12-20T18:16:43.100Z,84.44
2022-12-20T18:19:16.567Z,84.46
2022-12-20T18:21:43.630Z,85.46
2022-12-20T18:24:15.270Z,85.46
2022-12-20T18:26:42.514Z,86.11
2022-12-20T18:29:09.929Z,86.15
2022-12-20T18:31:36.715Z,86.24
2022-12-20T18:34:03.744Z,85.57
2022-12-20T18:36:34.317Z,85.38
2022-12-20T18:39:02.089Z,85.41
2022-12-20T18:41:30.164Z,85.81
2022-12-20T18:44:02.509Z,85.53
2022-12-20T18:46:30.062Z,86.35
2022-12-20T18:48:58.296Z,86.38
2022-12-20T18:51:27.911Z,86.44
2022-12-20T18:53:56.442Z,85.94
2022-12-20T18:56:25.345Z,86.51
2022-12-20T18:58:52.640Z,87.13
2022-12-20T19:01:21.781Z,87.78
2022-12-20T19:03:50.691Z,85.68
2022-12-20T19:06:18.048Z,85.01
2022-12-20T19:08:44.907Z,84.72
2022-12-20T19:11:14.133Z,84.95
2022-12-20T19:13:41.776Z,84.55
2022-12-20T19:16:12.009Z,84.57
2022-12-20T19:18:39.696Z,85.22
2022-12-20T19:21:13.712Z,85.73
2022-12-20T19:23:41.667Z,85.88
2022-12-20T19:26:10.084Z,86.17
2022-12-20T19:28:36.772Z,82.31
2022-12-20T19:31:17.382Z,82.50
2022-12-20T19:33:47.902Z,82.87
2022-12-20T19:36:20.412Z,83.12
2022-12-20T19:38:50.270Z,84.13
2022-12-20T19:41:17.973Z,83.79
2022-12-20T19:43:45.056Z,80.60
2022-12-20T19:46:11.677Z,80.69
2022-12-20T19:48:38.729Z,81.12
2022-12-20T19:51:11.680Z,81.56
2022-12-20T19:53:39.769Z,81.66
2022-12-20T19:56:10.240Z,82.23
2022-12-20T19:58:37.782Z,80.77
2022-12-20T20:01:05.654Z,80.96
2022-12-20T20:03:32.807Z,81.19
2022-12-20T20:05:59.625Z,81.59
2022-12-20T20:08:26.286Z,81.67
2022-12-20T20:10:57.627Z,82.24
2022-12-20T20:13:26.512Z,82.53
2022-12-20T20:16:01.378Z,82.63
2022-12-20T20:18:28.689Z,82.90
2022-12-20T20:20:55.911Z,82.56
2022-12-20T20:23:23.179Z,82.23
2022-12-20T20:25:56.895Z,81.84
2022-12-20T20:28:31.315Z,82.48
2022-12-20T20:30:59.399Z,81.46
2022-12-20T20:33:26.192Z,81.18
2022-12-20T20:35:57.179Z,80.94
2022-12-20T20:40:50.911Z,81.40
2022-12-20T20:43:17.871Z,82.14
2022-12-20T20:45:44.511Z,81.94
2022-12-20T20:48:11.384Z,82.78
2022-12-20T20:50:38.009Z,82.72
2022-12-20T20:53:04.909Z,82.81
2022-12-20T20:55:31.548Z,83.29
2022-12-20T20:57:58.370Z,83.60
2022-12-20T21:00:25.278Z,83.35
2022-12-20T21:02:51.993Z,83.18
2022-12-20T21:08:05.796Z,83.05
2022-12-20T21:10:32.619Z,83.34
2022-12-20T21:12:59.400Z,83.60
2022-12-20T21:15:28.021Z,84.00
2022-12-20T21:17:55.185Z,84.15
2022-12-20T21:20:25.957Z,84.51
2022-12-20T21:22:53.547Z,84.06
2022-12-20T21:25:20.245Z,84.12
2022-12-20T21:27:46.946Z,84.31
2022-12-20T21:30:13.575Z,84.40
2022-12-20T21:32:40.331Z,84.52
2022-12-20T21:35:07.332Z,84.87
2022-12-20T21:37:33.935Z,85.07
2022-12-20T21:40:00.610Z,85.22
2022-12-20T21:42:27.348Z,85.32
2022-12-20T21:44:54.013Z,85.47
2022-12-20T21:47:20.648Z,86.00
2022-12-20T21:49:47.316Z,85.62
2022-12-20T21:52:14.158Z,85.98
2022-12-20T21:54:40.821Z,84.52
2022-12-20T21:57:07.450Z,84.77
2022-12-20T21:59:34.135Z,84.91
2022-12-20T22:02:01.129Z,83.91
2022-12-20T22:04:28.040Z,84.32
2022-12-20T22:06:54.681Z,84.59
2022-12-20T22:09:21.407Z,84.96
2022-12-20T22:11:48.644Z,85.12
2022-12-20T22:14:16.057Z,85.53
2022-12-20T22:16:43.536Z,85.99
2022-12-20T22:19:12.889Z,86.45
2022-12-20T22:21:39.545Z,86.55
2022-12-20T22:24:06.481Z,86.87
2022-12-20T22:26:33.608Z,87.04
2022-12-20T22:29:02.382Z,87.40
2022-12-20T22:31:30.459Z,87.87
2022-12-20T22:33:58.030Z,88.33
2022-12-20T22:36:25.222Z,87.45
2022-12-20T22:38:53.109Z,86.76
2022-12-20T22:41:22.750Z,86.97
2022-12-20T22:43:50.050Z,87.00
2022-12-20T22:46:17.802Z,87.02
2022-12-20T22:48:44.971Z,87.25
2022-12-20T22:51:14.285Z,87.42
2022-12-20T22:53:41.504Z,87.81
2022-12-20T22:56:08.873Z,87.91
2022-12-20T22:58:36.762Z,88.74
2022-12-20T23:01:05.558Z,88.23
2022-12-20T23:03:32.496Z,88.54
2022-12-20T23:06:00.949Z,88.69
2022-12-20T23:08:30.079Z,89.24
2022-12-20T23:11:15.839Z,89.57
2022-12-20T23:14:15.265Z,90.10
2022-12-20T23:16:45.008Z,90.17
2022-12-20T23:19:11.963Z,90.20
2022-12-20T23:21:57.407Z,89.52
2022-12-20T23:24:24.105Z,89.80
2022-12-20T23:26:50.708Z,90.26
2022-12-20T23:29:17.404Z,90.55
2022-12-20T23:31:46.312Z,90.88
2022-12-20T23:34:13.501Z,91.56
2022-12-20T23:36:40.849Z,91.51
2022-12-20T23:39:07.972Z,90.75
2022-12-20T23:41:34.781Z,91.39
2022-12-20T23:44:03.800Z,90.52
2022-12-20T23:46:30.554Z,90.86
2022-12-20T23:48:57.308Z,91.45
2022-12-20T23:51:23.907Z,91.67
2022-12-20T23:53:51.715Z,92.35
2022-12-20T23:56:21.019Z,93.12
2022-12-20T23:58:53.104Z,93.96
